Time;durP1;ratioP1;P1;durP2;ratioP2;P2;SDS_P1;SDS_P2;PMS_P1;PMS_P2;Temp;Humidity;BMP_temperature;BMP_pressure;BME280_temperature;BME280_humidity;BME280_pressure;Samples;Min_cycle;Max_cycle;Signal;HPM_P1;HPM_P2
2021/08/30 00:02:23;;;;;;;13.95;6.30;;;;;;;17.05;77.82;102269.47;4984310;28;20034;-50
2021/08/30 00:04:48;;;;;;;9.50;6.28;;;;;;;17.12;77.71;102276.56;4982233;28;20525;-49
2021/08/30 00:07:14;;;;;;;11.10;6.03;;;;;;;17.15;77.75;102270.41;4983942;28;20431;-50
2021/08/30 00:09:40;;;;;;;10.77;6.00;;;;;;;17.02;78.01;102283.47;4979314;28;20058;-47
2021/08/30 00:12:06;;;;;;;16.02;6.22;;;;;;;17.08;77.98;102269.47;4981428;28;20478;-48
2021/08/30 00:14:31;;;;;;;9.68;6.03;;;;;;;17.06;77.73;102268.59;4988019;28;20026;-47
2021/08/30 00:16:58;;;;;;;12.93;5.82;;;;;;;17.12;77.90;102271.28;4984784;28;20641;-49
2021/08/30 00:19:24;;;;;;;9.10;6.13;;;;;;;17.10;77.97;102270.38;4986916;28;20034;-48
2021/08/30 00:21:49;;;;;;;13.90;6.57;;;;;;;17.12;78.09;102268.66;4985800;28;20022;-51
2021/08/30 00:24:14;;;;;;;13.52;6.20;;;;;;;17.14;78.09;102276.56;4987121;28;20049;-47
2021/08/30 00:26:40;;;;;;;10.90;6.40;;;;;;;17.03;78.31;102272.06;4990207;28;20030;-51
2021/08/30 00:29:05;;;;;;;11.10;6.13;;;;;;;17.11;78.32;102273.91;4983865;28;20030;-48
2021/08/30 00:31:31;;;;;;;10.63;6.45;;;;;;;17.08;78.21;102277.38;4987433;28;20620;-49
2021/08/30 00:33:56;;;;;;;10.32;6.40;;;;;;;17.07;78.15;102277.38;4986208;28;20112;-48
2021/08/30 00:36:25;;;;;;;11.48;6.47;;;;;;;17.06;78.19;102275.63;4986656;28;20026;-49
2021/08/30 00:38:53;;;;;;;12.45;6.50;;;;;;;17.09;78.16;102280.91;4986897;28;20119;-50
2021/08/30 00:41:19;;;;;;;11.00;6.40;;;;;;;17.05;78.31;102282.63;4983365;28;20099;-48
2021/08/30 00:43:44;;;;;;;11.00;6.97;;;;;;;17.13;78.23;102282.72;4985522;28;20101;-52
2021/08/30 00:46:10;;;;;;;13.15;7.13;;;;;;;17.04;78.33;102284.38;4981052;28;20085;-47
2021/08/30 00:48:35;;;;;;;12.60;6.90;;;;;;;17.11;78.34;102287.06;4983061;28;20065;-47
2021/08/30 00:51:00;;;;;;;11.32;6.43;;;;;;;17.19;77.98;102283.66;4987250;28;20259;-49
2021/08/30 00:53:26;;;;;;;12.73;7.32;;;;;;;17.02;78.66;102286.09;4987507;28;20124;-49
2021/08/30 00:55:52;;;;;;;13.13;6.85;;;;;;;17.03;78.65;102279.97;4982623;28;20033;-46
2021/08/30 00:58:17;;;;;;;12.43;6.72;;;;;;;17.11;78.55;102284.44;4982832;28;20068;-50
2021/08/30 01:00:43;;;;;;;12.52;7.20;;;;;;;17.05;78.65;102285.25;4983121;28;20124;-48
2021/08/30 01:03:09;;;;;;;15.32;6.75;;;;;;;17.11;78.44;102290.59;4984628;28;20056;-47
2021/08/30 01:05:36;;;;;;;12.75;7.00;;;;;;;17.03;78.52;102285.25;4985712;28;20069;-50
2021/08/30 01:08:07;;;;;;;12.93;7.00;;;;;;;17.15;78.41;102283.59;4990480;28;20352;-47
2021/08/30 01:10:42;;;;;;;14.98;7.18;;;;;;;16.95;78.89;102289.59;4985624;28;20056;-47
2021/08/30 01:13:12;;;;;;;15.52;7.22;;;;;;;17.02;78.97;102291.38;4983733;28;20509;-48
2021/08/30 01:15:43;;;;;;;13.85;7.13;;;;;;;17.00;79.04;102293.13;4982218;28;20054;-48
2021/08/30 01:18:15;;;;;;;13.48;6.97;;;;;;;17.07;78.86;102291.44;4985631;28;20490;-47
2021/08/30 01:20:51;;;;;;;11.07;7.18;;;;;;;17.09;79.01;102288.78;4989596;28;20033;-48
2021/08/30 01:23:18;;;;;;;13.55;7.53;;;;;;;17.05;79.24;102293.16;4986833;28;20070;-47
2021/08/30 01:25:44;;;;;;;12.98;7.68;;;;;;;17.06;79.05;102300.22;4985668;28;20053;-46
2021/08/30 01:28:10;;;;;;;13.85;7.82;;;;;;;16.98;79.54;102296.59;4987552;28;20026;-47
2021/08/30 01:30:37;;;;;;;12.75;7.35;;;;;;;17.02;79.17;102298.41;4984078;28;20084;-47
2021/08/30 01:33:03;;;;;;;12.73;7.43;;;;;;;16.98;79.25;102300.13;4979914;28;20033;-47
2021/08/30 01:35:30;;;;;;;17.50;7.50;;;;;;;16.98;79.56;102293.97;4982986;28;20169;-48
2021/08/30 01:37:57;;;;;;;13.98;7.35;;;;;;;17.01;79.53;102301.94;4979974;28;20124;-47
2021/08/30 01:40:26;;;;;;;15.32;8.23;;;;;;;17.03;79.50;102303.69;4983719;28;20087;-48
2021/08/30 01:42:53;;;;;;;18.13;7.95;;;;;;;16.93;79.85;102291.31;4991118;28;20069;-48
2021/08/30 01:45:20;;;;;;;13.70;8.00;;;;;;;17.01;79.56;102299.28;4985486;28;20033;-50
2021/08/30 01:47:48;;;;;;;14.23;8.07;;;;;;;16.98;79.48;102288.72;4984933;28;20502;-49
2021/08/30 01:50:15;;;;;;;15.40;8.23;;;;;;;16.95;79.69;102294.84;4998703;28;20042;-47
2021/08/30 01:52:42;;;;;;;15.77;7.78;;;;;;;16.98;79.63;102293.97;5000141;28;20042;-49
2021/08/30 02:03:14;;;;;;;18.63;9.50;;;;;;;17.00;79.75;102294.88;4981389;28;20065;-46
2021/08/30 02:05:40;;;;;;;21.23;9.75;;;;;;;16.96;79.82;102298.34;4979243;28;20494;-46
2021/08/30 02:08:05;;;;;;;23.15;9.88;;;;;;;17.01;79.74;102297.53;4984224;28;20030;-51
2021/08/30 02:10:31;;;;;;;15.20;9.18;;;;;;;17.00;79.75;102300.16;4985277;28;20049;-47
2021/08/30 02:12:57;;;;;;;16.55;9.88;;;;;;;16.95;79.95;102293.97;4987983;28;20790;-47
2021/08/30 02:15:22;;;;;;;18.65;10.02;;;;;;;16.93;80.14;102301.84;4979838;28;20474;-48
2021/08/30 02:17:50;;;;;;;17.90;10.20;;;;;;;16.92;79.90;102299.19;4983740;28;20107;-49
2021/08/30 02:20:18;;;;;;;18.15;10.10;;;;;;;16.84;80.20;102301.72;4980981;28;20034;-47
2021/08/30 02:22:44;;;;;;;19.65;10.45;;;;;;;16.92;79.72;102304.44;4980318;28;20473;-47
2021/08/30 02:25:15;;;;;;;17.70;10.35;;;;;;;16.98;79.68;102307.16;4984942;28;20054;-48
2021/08/30 02:27:57;;;;;;;19.02;10.98;;;;;;;16.87;79.94;102300.91;4983636;28;20042;-47
2021/08/30 02:30:24;;;;;;;18.27;11.02;;;;;;;16.89;79.82;102300.06;4984426;28;20512;-47
2021/08/30 02:32:52;;;;;;;20.05;11.00;;;;;;;16.97;79.43;102293.09;4982691;28;20033;-49
2021/08/30 02:35:22;;;;;;;19.95;11.40;;;;;;;17.04;79.42;102288.75;4977267;28;20026;-47
2021/08/30 02:37:50;;;;;;;20.63;11.50;;;;;;;17.01;79.38;102294.03;4982828;28;20042;-47
2021/08/30 02:40:16;;;;;;;21.52;11.40;;;;;;;16.93;79.50;102288.66;4981374;28;20030;-48
2021/08/30 02:42:42;;;;;;;18.52;10.98;;;;;;;16.91;79.57;102293.03;4985578;28;20372;-48
2021/08/30 02:45:10;;;;;;;20.92;11.35;;;;;;;16.99;79.27;102279.94;4986002;28;20046;-47
2021/08/30 02:47:38;;;;;;;19.65;10.80;;;;;;;16.94;79.24;102284.28;4985131;28;20045;-50
2021/08/30 02:50:04;;;;;;;19.55;11.73;;;;;;;16.98;79.12;102281.69;4985172;28;20391;-53
2021/08/30 02:52:30;;;;;;;22.35;11.27;;;;;;;17.02;78.93;102279.94;4982282;28;20034;-48
2021/08/30 02:54:56;;;;;;;21.13;11.05;;;;;;;17.01;78.76;102279.09;4984910;28;20036;-47
2021/08/30 02:57:22;;;;;;;18.42;10.88;;;;;;;17.02;77.84;102277.31;4985252;28;20026;-49
2021/08/30 02:59:50;;;;;;;18.73;11.45;;;;;;;16.87;77.83;102272.81;4982950;28;20239;-50
2021/08/30 03:02:16;;;;;;;24.23;10.93;;;;;;;16.96;77.12;102280.78;4982533;28;20033;-49
2021/08/30 03:04:42;;;;;;;17.13;10.48;;;;;;;16.92;77.41;102272.84;4984692;28;20095;-51
2021/08/30 03:07:07;;;;;;;19.55;11.05;;;;;;;16.98;76.90;102280.81;4982346;28;20693;-51
2021/08/30 03:09:32;;;;;;;19.05;10.65;;;;;;;17.00;76.93;102279.97;4982575;28;20037;-48
2021/08/30 03:12:00;;;;;;;15.82;10.27;;;;;;;17.06;76.84;102258.06;4984647;28;20041;-49
2021/08/30 03:14:26;;;;;;;20.38;10.98;;;;;;;17.01;76.95;102262.41;4996480;28;20481;-50
2021/08/30 03:16:53;;;;;;;18.50;11.25;;;;;;;17.05;77.04;102269.47;4981850;28;20048;-48
2021/08/30 03:19:19;;;;;;;24.85;11.48;;;;;;;16.96;77.20;102257.06;4998678;28;20711;-51
2021/08/30 03:21:46;;;;;;;18.40;11.70;;;;;;;16.98;76.89;102252.72;4986446;28;20113;-47
2021/08/30 03:24:12;;;;;;;25.65;12.60;;;;;;;16.85;77.43;102257.84;4979716;28;20030;-47
2021/08/30 03:26:38;;;;;;;21.98;11.70;;;;;;;16.77;77.65;102255.13;4984106;28;20030;-47
2021/08/30 03:29:03;;;;;;;24.98;12.45;;;;;;;16.71;77.86;102244.53;4984120;28;20038;-50
2021/08/30 03:31:31;;;;;;;22.45;12.25;;;;;;;16.57;78.54;102240.88;4980329;28;20030;-50
2021/08/30 03:33:57;;;;;;;21.25;12.23;;;;;;;16.62;78.02;102241.81;4984061;28;20034;-47
2021/08/30 03:36:24;;;;;;;22.98;12.50;;;;;;;16.54;78.09;102235.53;4977671;28;20033;-46
2021/08/30 03:38:50;;;;;;;26.08;13.25;;;;;;;16.48;78.61;102240.75;4978797;28;20026;-48
2021/08/30 03:41:16;;;;;;;24.83;12.00;;;;;;;16.36;78.98;102241.50;4987871;28;20619;-48
2021/08/30 03:43:42;;;;;;;20.92;11.95;;;;;;;16.25;79.51;102243.13;4985624;28;20196;-50
2021/08/30 03:46:07;;;;;;;25.88;12.98;;;;;;;16.14;80.08;102243.00;4981087;28;20056;-52
2021/08/30 03:48:33;;;;;;;24.65;13.55;;;;;;;16.11;80.26;102249.97;4989980;28;20531;-48
2021/08/30 03:50:58;;;;;;;26.20;14.10;;;;;;;16.08;80.31;102250.81;4988277;28;20194;-50
2021/08/30 03:53:24;;;;;;;24.65;14.43;;;;;;;16.02;80.54;102248.13;4983121;28;20055;-53
2021/08/30 03:55:50;;;;;;;25.20;14.25;;;;;;;15.99;80.77;102249.81;4984265;28;20113;-49
2021/08/30 03:58:17;;;;;;;24.38;13.55;;;;;;;15.93;80.96;102249.72;4987533;28;20383;-46
2021/08/30 04:00:43;;;;;;;24.65;14.48;;;;;;;15.90;81.12;102254.97;4987330;28;20022;-54
2021/08/30 04:03:10;;;;;;;25.45;14.10;;;;;;;15.83;81.23;102244.34;4983550;28;20054;-49
2021/08/30 04:05:36;;;;;;;28.65;15.52;;;;;;;15.81;81.30;102253.06;4985699;28;20450;-46
2021/08/30 04:08:03;;;;;;;32.47;16.23;;;;;;;15.81;81.49;102253.97;4982843;28;20120;-48
2021/08/30 04:10:29;;;;;;;30.75;17.23;;;;;;;15.79;81.56;102252.19;4996516;28;20034;-47
2021/08/30 04:12:56;;;;;;;30.27;16.75;;;;;;;15.80;81.53;102251.31;4982508;28;20045;-48
2021/08/30 04:15:22;;;;;;;31.67;16.85;;;;;;;15.81;81.52;102261.84;4987144;28;20030;-46
2021/08/30 04:17:47;;;;;;;33.67;16.85;;;;;;;15.79;81.65;102255.72;4983192;28;20038;-47
2021/08/30 04:20:12;;;;;;;30.58;16.63;;;;;;;15.79;81.39;102262.72;4990582;28;20112;-48
2021/08/30 04:22:38;;;;;;;32.38;15.85;;;;;;;15.78;81.89;102263.56;4990830;28;20526;-49
2021/08/30 04:25:05;;;;;;;32.35;17.23;;;;;;;15.78;81.56;102253.94;4987078;28;20549;-51
2021/08/30 04:27:30;;;;;;;32.55;16.30;;;;;;;15.72;81.83;102252.97;4988113;28;20666;-46
2021/08/30 04:29:55;;;;;;;32.72;15.88;;;;;;;15.71;82.14;102254.72;4986620;28;20030;-49
2021/08/30 04:32:21;;;;;;;32.40;15.77;;;;;;;15.70;81.94;102252.03;4981115;28;20034;-51
2021/08/30 04:34:46;;;;;;;28.65;16.15;;;;;;;15.70;82.28;102249.41;4984838;28;20014;-48
2021/08/30 04:37:11;;;;;;;35.20;15.80;;;;;;;15.66;82.46;102255.50;4986125;28;20038;-50
2021/08/30 04:39:37;;;;;;;32.50;16.40;;;;;;;15.70;82.30;102255.56;4983034;28;20857;-49
2021/08/30 04:42:05;;;;;;;26.23;15.20;;;;;;;15.75;82.04;102256.50;4987915;28;20944;-48
2021/08/30 04:44:30;;;;;;;29.50;15.20;;;;;;;15.69;82.12;102253.78;5001477;28;20030;-48
2021/08/30 04:46:56;;;;;;;28.00;14.77;;;;;;;15.66;82.13;102255.50;4986146;28;20049;-47
2021/08/30 04:49:21;;;;;;;24.67;13.52;;;;;;;15.66;82.21;102253.75;4989432;28;20449;-49
2021/08/30 04:51:46;;;;;;;35.72;15.88;;;;;;;15.67;82.60;102259.91;4989059;28;20417;-50
2021/08/30 04:54:12;;;;;;;31.55;15.77;;;;;;;15.67;82.84;102254.66;4983982;28;20896;-47
2021/08/30 04:56:37;;;;;;;34.08;15.98;;;;;;;15.68;82.82;102266.91;4983290;28;20072;-50
2021/08/30 04:59:03;;;;;;;32.45;16.13;;;;;;;15.70;82.96;102265.19;4969857;28;20030;-52
2021/08/30 05:01:28;;;;;;;30.67;15.50;;;;;;;15.85;82.83;102260.16;4984762;28;20036;-48
2021/08/30 05:03:53;;;;;;;31.40;15.75;;;;;;;15.87;82.52;102261.03;4987623;28;20362;-51
2021/08/30 05:06:19;;;;;;;29.00;16.02;;;;;;;16.00;82.36;102262.09;4985961;28;20034;-47
2021/08/30 05:08:44;;;;;;;28.38;15.23;;;;;;;16.09;82.09;102278.91;4978586;28;20395;-51
2021/08/30 05:11:10;;;;;;;28.88;15.50;;;;;;;16.16;81.88;102271.97;4991751;28;20586;-52
2021/08/30 05:13:35;;;;;;;28.85;14.80;;;;;;;16.22;81.65;102282.56;4982426;28;20088;-48
2021/08/30 05:16:01;;;;;;;30.45;15.35;;;;;;;16.29;81.35;102280.88;4987485;28;20042;-48
2021/08/30 05:18:26;;;;;;;25.15;14.88;;;;;;;16.36;81.10;102280.09;4985988;28;20110;-48
2021/08/30 05:20:53;;;;;;;26.42;14.52;;;;;;;16.41;81.14;102286.28;4983611;28;20017;-54
2021/08/30 05:23:18;;;;;;;27.35;14.63;;;;;;;16.44;80.96;102295.13;4977822;28;20505;-48
2021/08/30 05:25:44;;;;;;;26.17;14.52;;;;;;;16.56;80.47;102295.25;4981307;28;20088;-46
2021/08/30 05:28:10;;;;;;;26.77;14.90;;;;;;;16.59;80.36;102300.59;4980549;28;20048;-46
2021/08/30 05:30:35;;;;;;;30.10;15.18;;;;;;;16.61;80.35;102300.59;4988462;28;20100;-47
2021/08/30 05:33:03;;;;;;;28.77;14.90;;;;;;;16.72;80.17;102304.25;4985957;28;20064;-50
2021/08/30 05:35:28;;;;;;;28.30;14.57;;;;;;;16.80;79.81;102299.06;4984875;28;20033;-50
2021/08/30 05:37:54;;;;;;;29.38;13.93;;;;;;;16.79;80.06;102298.16;4982970;28;20053;-48
2021/08/30 05:40:19;;;;;;;25.75;14.18;;;;;;;16.88;79.85;102302.66;4984140;28;20112;-50
2021/08/30 05:42:45;;;;;;;21.92;13.48;;;;;;;16.97;79.55;102305.38;4983425;28;20549;-50
2021/08/30 05:45:10;;;;;;;28.08;14.70;;;;;;;16.96;79.84;102311.50;4986132;28;20085;-47
2021/08/30 05:47:36;;;;;;;25.98;13.55;;;;;;;17.02;79.63;102317.72;4982680;28;20148;-48
2021/08/30 05:50:02;;;;;;;23.45;13.82;;;;;;;17.07;79.73;102309.00;4984046;28;20089;-48
2021/08/30 05:52:27;;;;;;;28.27;14.18;;;;;;;17.09;79.71;102315.16;4983222;28;20552;-49
2021/08/30 05:54:53;;;;;;;26.10;14.05;;;;;;;17.17;79.43;102317.00;4985370;28;20449;-50
2021/08/30 05:57:18;;;;;;;26.25;14.82;;;;;;;17.12;79.66;102318.72;4983899;28;20841;-49
2021/08/30 05:59:44;;;;;;;27.10;14.40;;;;;;;17.10;79.76;102316.91;4988438;28;20029;-53
2021/08/30 06:02:10;;;;;;;28.10;14.30;;;;;;;17.11;79.97;102318.69;4983155;28;20651;-47
2021/08/30 06:04:36;;;;;;;24.48;14.43;;;;;;;17.15;79.71;102316.09;4986358;28;20120;-50
2021/08/30 06:07:02;;;;;;;30.55;14.77;;;;;;;17.17;79.80;102317.00;4983241;28;20044;-47
2021/08/30 06:09:29;;;;;;;25.08;14.10;;;;;;;17.16;79.66;102317.88;4985439;28;20030;-46
2021/08/30 06:11:54;;;;;;;27.23;13.98;;;;;;;17.14;79.77;102316.97;4982809;28;20477;-50
2021/08/30 06:14:20;;;;;;;29.83;14.50;;;;;;;17.22;79.65;102320.56;4983335;28;20057;-47
2021/08/30 06:16:45;;;;;;;24.25;13.82;;;;;;;17.19;79.91;102322.28;4984292;28;20257;-52
2021/08/30 06:19:10;;;;;;;24.73;14.27;;;;;;;17.27;79.74;102325.84;4983275;28;20535;-47
2021/08/30 06:21:36;;;;;;;28.00;14.90;;;;;;;17.19;79.84;102325.81;4983700;28;20479;-47
2021/08/30 06:24:01;;;;;;;32.33;15.18;;;;;;;17.27;79.85;102313.56;4982671;28;20650;-48
2021/08/30 06:26:26;;;;;;;28.58;15.70;;;;;;;17.40;79.38;102322.47;4984724;28;20116;-53
2021/08/30 06:28:52;;;;;;;30.63;14.68;;;;;;;17.43;78.99;102325.16;4978934;28;20029;-47
2021/08/30 06:31:17;;;;;;;28.70;14.45;;;;;;;17.48;78.72;102322.53;4985544;28;20565;-49
2021/08/30 06:33:42;;;;;;;28.20;15.07;;;;;;;17.37;79.18;102315.44;4986153;28;20875;-47
2021/08/30 06:36:09;;;;;;;29.38;14.90;;;;;;;17.50;78.77;102323.44;4984289;28;20541;-49
2021/08/30 06:38:35;;;;;;;31.58;14.20;;;;;;;17.48;78.74;102323.41;4985200;28;20026;-48
2021/08/30 06:41:00;;;;;;;27.98;14.32;;;;;;;17.47;78.80;102328.66;4986184;28;20347;-48
2021/08/30 06:43:26;;;;;;;25.23;14.00;;;;;;;17.36;78.98;102331.22;4979489;28;20437;-53
2021/08/30 06:45:51;;;;;;;28.95;15.63;;;;;;;17.31;78.97;102328.56;4978960;28;20042;-50
2021/08/30 06:48:16;;;;;;;29.23;15.55;;;;;;;17.28;78.88;102317.97;4984310;28;20431;-48
2021/08/30 06:50:42;;;;;;;25.77;15.57;;;;;;;17.41;78.39;102325.13;4982341;28;20121;-51
2021/08/30 06:53:11;;;;;;;29.70;16.23;;;;;;;17.59;78.08;102321.75;4985301;28;20057;-47
2021/08/30 06:55:36;;;;;;;29.38;16.20;;;;;;;17.60;77.98;102331.47;4980381;28;20030;-47
2021/08/30 06:58:02;;;;;;;29.55;15.90;;;;;;;17.67;77.87;102328.00;4984538;28;20034;-48
2021/08/30 07:00:28;;;;;;;24.75;14.77;;;;;;;17.69;77.39;102328.88;4978922;28;20065;-48
2021/08/30 07:02:54;;;;;;;26.77;15.00;;;;;;;17.55;78.21;102327.88;4981827;28;20549;-47
2021/08/30 07:05:20;;;;;;;26.67;14.38;;;;;;;17.67;77.81;102328.00;4981208;28;20109;-48
2021/08/30 07:07:45;;;;;;;23.40;14.48;;;;;;;17.70;77.75;102328.00;4982071;28;20041;-48
2021/08/30 07:10:11;;;;;;;25.60;14.00;;;;;;;17.70;77.59;102328.00;4982963;28;20026;-51
2021/08/30 07:12:36;;;;;;;25.63;14.05;;;;;;;17.88;77.55;102334.28;4977671;28;20031;-51
2021/08/30 07:15:01;;;;;;;22.70;14.00;;;;;;;17.93;77.17;102325.50;4982995;28;20041;-48
2021/08/30 07:17:27;;;;;;;22.77;13.90;;;;;;;17.89;77.21;102322.84;4979034;28;20061;-47
2021/08/30 07:19:52;;;;;;;22.13;13.75;;;;;;;18.05;77.26;102325.59;4985573;28;20437;-46
2021/08/30 07:22:18;;;;;;;27.92;13.18;;;;;;;18.02;76.43;102319.41;4987445;28;20572;-49
2021/08/30 07:24:43;;;;;;;26.52;13.65;;;;;;;18.05;76.21;102325.59;4979493;28;20026;-49
2021/08/30 07:27:09;;;;;;;23.67;13.77;;;;;;;18.05;75.88;102330.00;4987241;28;20025;-48
2021/08/30 07:29:34;;;;;;;21.48;13.65;;;;;;;18.02;76.34;102337.91;4998006;28;20153;-48
2021/08/30 07:31:59;;;;;;;24.13;14.15;;;;;;;17.89;76.33;102339.56;4987547;28;20034;-47
2021/08/30 07:34:25;;;;;;;19.70;13.10;;;;;;;18.04;76.01;102336.16;4983245;28;20021;-46
2021/08/30 07:36:53;;;;;;;23.08;13.82;;;;;;;17.94;76.11;102339.59;4988543;28;20030;-48
2021/08/30 07:39:19;;;;;;;22.58;13.55;;;;;;;18.01;75.96;102344.03;4983501;28;20030;-48
2021/08/30 07:41:45;;;;;;;23.85;13.57;;;;;;;18.02;75.88;102341.41;4989915;28;20054;-48
2021/08/30 07:44:10;;;;;;;20.25;12.85;;;;;;;18.15;75.57;102342.38;4979477;28;20425;-47
2021/08/30 07:46:36;;;;;;;22.33;13.60;;;;;;;18.02;75.82;102338.78;4987369;28;20097;-49
2021/08/30 07:49:01;;;;;;;21.40;13.57;;;;;;;18.04;75.79;102341.44;4989020;28;20146;-47
2021/08/30 07:51:26;;;;;;;22.27;13.18;;;;;;;18.02;75.72;102343.16;4983583;28;20014;-47
2021/08/30 07:53:52;;;;;;;22.95;13.30;;;;;;;17.94;75.96;102335.19;4986747;28;20124;-50
2021/08/30 07:56:17;;;;;;;22.67;13.13;;;;;;;18.18;75.69;102343.25;4984615;28;20022;-49
2021/08/30 07:58:43;;;;;;;25.52;13.98;;;;;;;18.12;75.61;102348.50;4981234;28;20092;-46
2021/08/30 08:01:08;;;;;;;20.58;13.35;;;;;;;18.26;75.42;102340.66;4985052;28;20019;-47
2021/08/30 08:03:33;;;;;;;22.10;13.38;;;;;;;18.33;75.46;102354.78;4986260;28;20517;-51
2021/08/30 08:05:59;;;;;;;23.30;13.63;;;;;;;18.34;75.19;102359.19;4986869;28;20312;-48
2021/08/30 08:08:24;;;;;;;25.35;14.40;;;;;;;18.33;75.20;102353.03;4974760;28;20153;-48
2021/08/30 08:10:49;;;;;;;24.77;14.43;;;;;;;18.42;74.78;102354.84;4984258;28;20565;-48
2021/08/30 08:13:15;;;;;;;22.10;13.35;;;;;;;18.56;74.49;102358.44;4987342;28;20084;-49
2021/08/30 08:15:41;;;;;;;25.73;14.90;;;;;;;18.57;74.19;102357.56;4986150;28;20080;-49
2021/08/30 08:18:06;;;;;;;24.73;14.55;;;;;;;18.67;74.31;102364.63;4986567;28;20461;-50
2021/08/30 08:20:32;;;;;;;25.90;14.32;;;;;;;18.77;74.14;102360.28;4988840;28;20041;-51
2021/08/30 08:22:58;;;;;;;29.83;15.52;;;;;;;18.49;74.87;102360.13;4982491;28;20419;-52
2021/08/30 08:25:24;;;;;;;26.23;14.52;;;;;;;18.74;73.99;102363.78;4984778;28;20107;-51
2021/08/30 08:27:49;;;;;;;25.92;14.57;;;;;;;18.78;74.04;102362.94;4982340;28;20018;-49
2021/08/30 08:30:15;;;;;;;26.88;14.77;;;;;;;18.83;74.03;102361.19;4980100;28;20057;-48
2021/08/30 08:32:41;;;;;;;24.50;13.93;;;;;;;18.83;73.83;102355.03;4985628;28;20378;-50
2021/08/30 08:35:10;;;;;;;27.23;13.73;;;;;;;19.08;74.04;102364.78;4984182;28;20714;-50
2021/08/30 08:37:36;;;;;;;22.95;13.10;;;;;;;19.16;73.31;102352.44;4982851;28;20026;-49
2021/08/30 08:40:04;;;;;;;24.95;13.05;;;;;;;19.08;73.13;102358.63;4986096;28;20034;-49
2021/08/30 08:42:29;;;;;;;21.52;13.13;;;;;;;19.21;72.74;102353.31;4981977;28;20045;-50
2021/08/30 08:44:55;;;;;;;26.13;13.23;;;;;;;19.34;72.71;102362.16;4986764;28;20030;-50
2021/08/30 08:47:20;;;;;;;23.92;12.80;;;;;;;19.37;72.81;102359.53;4983243;28;20037;-50
2021/08/30 08:49:51;;;;;;;20.20;12.57;;;;;;;19.27;72.87;102355.13;4976960;28;20083;-49
2021/08/30 08:52:21;;;;;;;22.13;13.07;;;;;;;19.42;73.04;102358.66;4984800;28;20026;-48
2021/08/30 08:54:46;;;;;;;22.08;12.20;;;;;;;19.37;72.53;102360.41;4978407;28;20049;-49
2021/08/30 08:57:11;;;;;;;24.67;12.40;;;;;;;19.25;72.58;102357.75;4983395;28;20557;-53
2021/08/30 08:59:38;;;;;;;23.40;11.95;;;;;;;19.50;72.77;102356.03;4985376;28;20176;-49
2021/08/30 09:02:05;;;;;;;21.17;11.45;;;;;;;19.46;72.45;102364.84;4982320;28;20037;-47
2021/08/30 09:04:34;;;;;;;20.15;11.25;;;;;;;19.72;72.26;102352.50;4980826;28;20033;-52
2021/08/30 09:07:11;;;;;;;21.58;11.68;;;;;;;19.76;71.94;102356.03;4986236;28;20257;-48
2021/08/30 09:09:38;;;;;;;23.35;11.40;;;;;;;19.81;71.41;102347.22;4984981;28;20025;-50
2021/08/30 09:12:04;;;;;;;24.20;11.80;;;;;;;19.72;71.30;102338.38;4983703;28;20648;-51
2021/08/30 09:14:30;;;;;;;20.20;10.82;;;;;;;19.82;71.18;102346.28;4978235;28;20660;-49
2021/08/30 09:17:09;;;;;;;20.35;10.50;;;;;;;19.89;70.63;102349.81;4983105;28;20088;-46
2021/08/30 09:19:36;;;;;;;22.05;10.10;;;;;;;19.99;70.48;102346.28;4983612;28;20106;-48
2021/08/30 09:22:04;;;;;;;23.50;10.05;;;;;;;19.95;70.14;102351.56;4979752;28;20038;-53
2021/08/30 09:24:30;;;;;;;17.67;9.85;;;;;;;19.82;71.06;102356.88;4985655;28;20371;-50
2021/08/30 09:27:03;;;;;;;17.08;9.80;;;;;;;19.95;70.40;102348.91;4986308;28;20094;-47
2021/08/30 09:29:30;;;;;;;17.02;9.88;;;;;;;20.02;69.69;102354.22;4990691;28;20494;-48
2021/08/30 09:31:59;;;;;;;21.00;9.85;;;;;;;20.09;69.37;102355.09;4987935;28;20033;-49
2021/08/30 09:34:44;;;;;;;20.48;10.10;;;;;;;20.18;69.06;102355.06;4979393;28;20025;-50
2021/08/30 13:04:06;;;;;;;19.40;6.35;;;;;;;22.20;63.43;102333.34;5075583;27;20945;-51
2021/08/30 13:06:31;;;;;;;17.27;6.55;;;;;;;22.26;63.97;102329.78;5054095;28;20115;-49
2021/08/30 13:08:56;;;;;;;21.27;7.90;;;;;;;21.83;63.40;102327.53;5059647;28;20028;-47
2021/08/30 13:11:22;;;;;;;14.57;7.50;;;;;;;21.53;64.42;102324.31;5065988;28;20212;-50
2021/08/30 13:13:47;;;;;;;22.35;8.27;;;;;;;21.74;65.80;102329.41;5061928;28;20024;-48
2021/08/30 13:16:13;;;;;;;19.42;6.95;;;;;;;21.99;65.04;102324.75;5058385;28;20563;-48
2021/08/30 13:18:39;;;;;;;17.33;6.90;;;;;;;22.02;63.59;102324.72;5061337;28;20137;-47
2021/08/30 13:21:04;;;;;;;20.48;6.97;;;;;;;22.19;62.65;102318.34;5063333;28;20360;-51
2021/08/30 13:23:29;;;;;;;16.17;6.45;;;;;;;22.01;63.50;102322.97;5060169;28;20039;-48
2021/08/30 13:25:55;;;;;;;16.52;7.15;;;;;;;22.07;64.18;102318.47;5054566;28;20029;-47
2021/08/30 13:28:20;;;;;;;18.33;6.85;;;;;;;21.87;62.95;102320.44;5063202;28;20036;-51
2021/08/30 13:30:45;;;;;;;21.17;7.35;;;;;;;21.70;64.00;102317.06;5052295;28;20112;-49
2021/08/30 13:33:12;;;;;;;17.52;6.85;;;;;;;21.66;64.50;102325.94;5056654;28;20127;-51
2021/08/30 13:35:38;;;;;;;19.00;6.82;;;;;;;21.71;65.38;102321.50;5059145;28;20032;-49
2021/08/30 13:38:04;;;;;;;18.65;6.57;;;;;;;21.82;64.92;102307.22;5050906;28;20260;-49
2021/08/30 13:40:29;;;;;;;17.83;6.75;;;;;;;22.09;64.35;102321.09;5060368;28;20024;-48
2021/08/30 13:42:54;;;;;;;15.73;6.93;;;;;;;21.79;64.23;102319.63;5058638;28;20032;-47
2021/08/30 13:45:20;;;;;;;15.23;6.38;;;;;;;22.33;63.43;102326.13;5057806;28;20036;-53
2021/08/30 13:47:45;;;;;;;21.95;6.97;;;;;;;21.71;63.91;102318.84;5058417;28;20043;-49
2021/08/30 13:50:12;;;;;;;16.38;6.88;;;;;;;21.64;64.45;102320.66;5060141;28;20064;-52
2021/08/30 13:52:38;;;;;;;20.10;6.63;;;;;;;22.11;62.50;102319.31;5053558;28;20067;-50
2021/08/30 13:55:04;;;;;;;19.67;6.25;;;;;;;22.94;60.36;102331.53;5061927;28;20644;-47
2021/08/30 13:57:30;;;;;;;20.00;6.72;;;;;;;22.96;60.00;102332.38;5054689;28;20039;-51
2021/08/30 13:59:55;;;;;;;18.52;6.43;;;;;;;23.29;60.43;102317.69;5056274;28;20024;-49
2021/08/30 14:02:21;;;;;;;19.10;7.25;;;;;;;23.14;59.77;102328.56;5053720;28;20089;-52
2021/08/30 14:04:46;;;;;;;14.95;6.40;;;;;;;22.96;60.21;102328.84;5056368;28;20143;-47
2021/08/30 14:07:11;;;;;;;16.77;6.85;;;;;;;22.99;60.08;102331.47;5061417;28;20031;-50
2021/08/30 14:09:37;;;;;;;19.30;6.30;;;;;;;22.90;60.46;102329.81;5059523;28;20353;-48
2021/08/30 14:12:03;;;;;;;19.70;6.53;;;;;;;23.11;60.74;102325.09;5059853;28;20047;-48
2021/08/30 14:14:29;;;;;;;18.73;6.45;;;;;;;23.29;60.36;102335.44;5046623;28;20044;-49
2021/08/30 14:16:55;;;;;;;18.20;6.80;;;;;;;23.33;60.49;102321.16;5043409;28;20150;-48
2021/08/30 14:19:21;;;;;;;23.90;7.25;;;;;;;22.15;61.43;102321.91;5039461;28;20028;-49
2021/08/30 14:21:47;;;;;;;22.00;6.70;;;;;;;21.83;62.34;102332.84;5046039;28;20032;-51
2021/08/30 14:24:12;;;;;;;18.48;7.10;;;;;;;22.13;62.35;102333.47;5039004;28;20036;-50
2021/08/30 14:26:38;;;;;;;20.65;6.85;;;;;;;22.24;62.30;102331.56;5041914;28;20503;-49
2021/08/30 14:29:03;;;;;;;19.90;6.88;;;;;;;22.58;61.98;102337.31;5040563;28;20033;-50
2021/08/30 14:31:29;;;;;;;16.60;6.60;;;;;;;22.27;61.04;102337.69;5040990;28;20760;-47
2021/08/30 14:33:54;;;;;;;21.40;7.05;;;;;;;22.09;61.70;102337.03;5046834;28;20036;-49
2021/08/30 14:36:21;;;;;;;18.98;6.95;;;;;;;22.13;61.37;102334.34;5041047;28;20036;-54
2021/08/30 14:38:46;;;;;;;20.63;7.18;;;;;;;22.16;61.47;102331.63;5040751;28;20315;-52
2021/08/30 14:41:12;;;;;;;18.52;6.47;;;;;;;22.31;61.31;102335.03;5038940;28;20033;-50
2021/08/30 14:43:38;;;;;;;16.73;6.65;;;;;;;22.36;61.24;102334.06;5042141;28;21082;-51